createdAt,value
2023-03-03T00:00:01.049Z,2.25
2023-03-03T00:02:41.105Z,2.18
2023-03-03T00:05:09.212Z,1.86
2023-03-03T00:07:36.656Z,2.37
2023-03-03T00:13:02.972Z,2.76
2023-03-03T00:15:31.192Z,2.54
2023-03-03T00:18:00.488Z,2.57
2023-03-03T00:20:33.012Z,2.84
2023-03-03T00:23:10.201Z,2.76
2023-03-03T00:25:37.706Z,2.64
2023-03-03T00:28:09.169Z,2.77
2023-03-03T00:33:33.189Z,2.64
2023-03-03T00:39:20.948Z,3.02
2023-03-03T00:41:50.742Z,3.18
2023-03-03T00:44:40.038Z,3.09
2023-03-03T00:47:31.610Z,3.31
2023-03-03T00:52:56.559Z,3.33
2023-03-03T00:55:24.112Z,3.37
2023-03-03T00:57:51.613Z,3.19
2023-03-03T01:00:22.930Z,3.24
2023-03-03T01:02:51.922Z,3.11
2023-03-03T01:05:20.089Z,3.35
2023-03-03T01:10:40.618Z,3.15
2023-03-03T01:13:09.430Z,3.30
2023-03-03T01:15:37.074Z,3.16
2023-03-03T01:18:04.711Z,3.10
2023-03-03T01:20:32.307Z,3.07
2023-03-03T01:22:59.868Z,2.99
2023-03-03T01:28:31.275Z,3.08
2023-03-03T01:31:01.832Z,3.20
2023-03-03T01:33:29.395Z,3.12
2023-03-03T01:35:56.925Z,2.89
2023-03-03T01:38:24.348Z,3.00
2023-03-03T01:40:56.775Z,2.82
2023-03-03T01:43:24.669Z,3.02
2023-03-03T01:46:38.006Z,3.03
2023-03-03T01:49:11.183Z,3.12
2023-03-03T01:51:42.611Z,3.05
2023-03-03T01:54:13.563Z,2.95
2023-03-03T01:56:41.622Z,2.90
2023-03-03T02:02:12.213Z,2.60
2023-03-03T02:04:41.336Z,2.51
2023-03-03T02:10:12.805Z,2.92
2023-03-03T02:12:43.042Z,2.92
2023-03-03T02:15:18.749Z,2.98
2023-03-03T02:17:47.213Z,2.90
2023-03-03T02:20:18.937Z,2.78
2023-03-03T02:22:52.415Z,2.28
2023-03-03T02:25:23.579Z,2.14
2023-03-03T02:27:53.425Z,2.35
2023-03-03T02:33:24.015Z,2.09
2023-03-03T02:35:53.020Z,2.06
2023-03-03T02:38:24.038Z,2.14
2023-03-03T02:41:00.819Z,2.13
2023-03-03T02:43:34.316Z,1.92
2023-03-03T02:46:02.776Z,1.87
2023-03-03T02:48:30.238Z,2.07
2023-03-03T02:50:57.746Z,2.35
2023-03-03T02:53:25.184Z,2.49
2023-03-03T02:55:53.775Z,2.42
2023-03-03T02:58:21.224Z,2.28
2023-03-03T03:00:50.232Z,2.01
2023-03-03T03:03:22.206Z,2.09
2023-03-03T03:05:50.321Z,2.30
2023-03-03T03:08:20.989Z,2.19
2023-03-03T03:13:51.847Z,2.46
2023-03-03T03:16:21.314Z,2.14
2023-03-03T03:18:50.243Z,2.17
2023-03-03T03:21:17.909Z,2.32
2023-03-03T03:26:34.037Z,2.37
2023-03-03T03:29:01.757Z,2.07
2023-03-03T03:31:31.129Z,1.90
2023-03-03T03:34:00.470Z,2.25
2023-03-03T03:36:29.082Z,2.21
2023-03-03T03:38:57.033Z,2.22
2023-03-03T03:41:24.480Z,2.18
2023-03-03T03:43:51.944Z,2.53
2023-03-03T03:46:19.597Z,2.63
2023-03-03T03:48:48.508Z,2.86
2023-03-03T03:54:08.029Z,2.69
2023-03-03T03:56:37.182Z,2.82
2023-03-03T03:59:06.987Z,2.56
2023-03-03T04:01:34.623Z,2.74
2023-03-03T04:04:04.019Z,2.23
2023-03-03T04:06:31.517Z,2.52
2023-03-03T04:11:57.958Z,2.54
2023-03-03T04:14:26.942Z,2.45
2023-03-03T04:16:55.326Z,2.19
2023-03-03T04:19:24.633Z,2.31
2023-03-03T04:21:52.513Z,2.48
2023-03-03T04:24:20.220Z,2.32
2023-03-03T04:29:49.155Z,2.62
2023-03-03T04:32:18.398Z,2.50
2023-03-03T04:34:53.072Z,2.23
2023-03-03T04:37:26.946Z,2.42
2023-03-03T04:39:54.575Z,2.46
2023-03-03T04:42:23.081Z,2.33
2023-03-03T04:47:39.368Z,2.64
2023-03-03T04:50:10.690Z,2.28
2023-03-03T04:52:38.514Z,2.08
2023-03-03T04:55:10.583Z,2.36
2023-03-03T04:57:38.908Z,2.39
2023-03-03T05:03:09.250Z,2.28
2023-03-03T05:05:38.193Z,2.02
2023-03-03T05:11:07.968Z,1.61
2023-03-03T05:16:35.060Z,1.69
2023-03-03T05:19:02.543Z,1.28
2023-03-03T05:21:31.271Z,1.47
2023-03-03T05:23:58.722Z,1.61
2023-03-03T05:26:26.204Z,1.45
2023-03-03T05:28:53.671Z,1.73
2023-03-03T05:31:21.257Z,1.31
2023-03-03T05:33:48.835Z,1.04
2023-03-03T05:36:16.283Z,1.28
2023-03-03T05:38:45.090Z,1.37
2023-03-03T05:41:12.515Z,1.22
2023-03-03T05:43:40.531Z,1.05
2023-03-03T05:46:08.308Z,1.28
2023-03-03T05:48:35.814Z,1.52
2023-03-03T05:51:03.253Z,1.52
2023-03-03T05:53:31.180Z,0.97
2023-03-03T05:56:00.201Z,0.95
2023-03-03T05:58:31.867Z,1.18
2023-03-03T06:00:59.344Z,1.45
2023-03-03T06:03:26.846Z,1.65
2023-03-03T06:05:54.386Z,1.74
2023-03-03T06:08:21.908Z,1.89
2023-03-03T06:10:49.410Z,1.69
2023-03-03T06:13:18.416Z,1.55
2023-03-03T06:15:45.883Z,0.92
2023-03-03T06:21:11.981Z,1.41
2023-03-03T06:23:39.452Z,1.27
2023-03-03T06:29:05.750Z,1.21
2023-03-03T06:34:30.931Z,1.57
2023-03-03T06:36:58.395Z,1.81
2023-03-03T06:39:25.980Z,1.85
2023-03-03T06:41:53.535Z,1.45
2023-03-03T06:47:21.331Z,1.32
2023-03-03T06:49:48.777Z,1.64
2023-03-03T06:52:20.473Z,1.66
2023-03-03T06:54:50.684Z,1.88
2023-03-03T06:57:23.518Z,1.83
2023-03-03T06:59:53.876Z,2.05
2023-03-03T07:02:23.827Z,2.11
2023-03-03T07:04:51.563Z,2.03
2023-03-03T07:07:21.203Z,2.09
2023-03-03T07:09:50.676Z,2.14
2023-03-03T07:12:22.096Z,2.06
2023-03-03T07:14:55.360Z,2.25
2023-03-03T07:17:25.632Z,2.40
2023-03-03T07:22:41.922Z,2.16
2023-03-03T07:25:21.080Z,2.35
2023-03-03T07:30:31.448Z,2.12
2023-03-03T07:33:00.496Z,2.22
2023-03-03T07:35:36.386Z,2.39
2023-03-03T07:38:03.910Z,2.27
2023-03-03T07:40:36.793Z,2.31
2023-03-03T07:43:23.126Z,2.46
2023-03-03T07:45:51.123Z,2.37
2023-03-03T07:48:25.494Z,2.54
2023-03-03T07:50:53.065Z,2.59
2023-03-03T07:53:26.884Z,2.59
2023-03-03T07:55:54.948Z,2.86
2023-03-03T07:58:24.042Z,2.79
2023-03-03T08:01:25.168Z,2.56
2023-03-03T08:03:54.093Z,2.22
2023-03-03T08:09:49.272Z,2.75
2023-03-03T08:12:32.078Z,2.81
2023-03-03T08:15:13.180Z,2.93
2023-03-03T08:17:41.447Z,3.02
2023-03-03T08:20:40.253Z,3.12
2023-03-03T08:23:07.682Z,3.30
2023-03-03T08:25:35.117Z,3.39
2023-03-03T08:28:02.594Z,3.61
2023-03-03T08:30:30.845Z,3.17
2023-03-03T08:32:58.489Z,3.18
2023-03-03T08:38:30.300Z,3.38
2023-03-03T08:40:57.779Z,2.89
2023-03-03T08:43:25.237Z,3.03
2023-03-03T08:45:54.176Z,3.31
2023-03-03T08:48:22.216Z,3.33
2023-03-03T08:51:14.846Z,2.85
2023-03-03T08:53:43.648Z,2.82
2023-03-03T08:56:11.150Z,3.17
2023-03-03T08:58:41.983Z,3.25
2023-03-03T09:04:11.183Z,3.25
2023-03-03T09:06:39.139Z,3.66
2023-03-03T09:09:08.200Z,3.34
2023-03-03T09:11:35.781Z,3.11
2023-03-03T09:16:53.099Z,3.11
2023-03-03T09:19:24.815Z,2.90
2023-03-03T09:21:54.708Z,3.55
2023-03-03T09:24:29.163Z,3.80
2023-03-03T09:26:58.484Z,4.09
2023-03-03T09:32:37.650Z,3.29
2023-03-03T09:35:35.925Z,3.27
2023-03-03T09:38:13.227Z,3.56
2023-03-03T09:40:53.407Z,3.70
2023-03-03T09:43:26.805Z,3.90
2023-03-03T09:49:04.588Z,3.44
2023-03-03T09:54:48.027Z,4.04
2023-03-03T09:57:18.495Z,4.44
2023-03-03T10:00:02.428Z,4.21
2023-03-03T10:02:48.058Z,4.57
2023-03-03T10:05:16.316Z,4.22
2023-03-03T10:07:51.633Z,4.31
2023-03-03T10:10:27.103Z,4.22
2023-03-03T10:13:07.358Z,4.17
2023-03-03T10:15:41.181Z,3.90
2023-03-03T10:18:16.516Z,4.48
2023-03-03T10:20:54.652Z,5.08
2023-03-03T10:23:28.006Z,5.34
2023-03-03T10:26:03.292Z,5.63
2023-03-03T10:28:54.669Z,5.49
2023-03-03T10:31:33.747Z,5.68
2023-03-03T10:34:11.185Z,5.92
2023-03-03T10:36:47.919Z,5.44
2023-03-03T10:39:27.251Z,5.69
2023-03-03T10:42:05.552Z,6.14
2023-03-03T10:47:50.159Z,5.95
2023-03-03T10:50:22.599Z,6.37
2023-03-03T10:52:54.323Z,6.44
2023-03-03T10:58:46.519Z,7.12
2023-03-03T11:01:24.442Z,7.35
2023-03-03T11:04:04.694Z,6.76
2023-03-03T11:06:39.077Z,6.17
2023-03-03T11:12:21.442Z,6.23
2023-03-03T11:18:02.431Z,7.24
2023-03-03T11:20:37.296Z,7.42
2023-03-03T11:23:18.231Z,7.53
2023-03-03T11:25:50.777Z,7.84
2023-03-03T11:31:14.386Z,8.28
2023-03-03T11:33:51.832Z,7.49
2023-03-03T11:36:22.149Z,7.15
2023-03-03T11:38:54.284Z,6.71
2023-03-03T11:41:30.773Z,7.11
2023-03-03T11:44:04.612Z,7.38
2023-03-03T11:46:38.159Z,7.84
2023-03-03T11:49:08.017Z,7.48
2023-03-03T11:51:45.615Z,7.53
2023-03-03T11:54:19.914Z,7.49
2023-03-03T11:56:48.762Z,7.74
2023-03-03T12:02:46.912Z,7.53
2023-03-03T12:05:26.644Z,8.07
2023-03-03T12:07:58.430Z,8.22
2023-03-03T12:10:29.909Z,8.39
2023-03-03T12:16:01.714Z,8.66
2023-03-03T12:18:40.731Z,7.82
2023-03-03T12:21:18.098Z,8.19
2023-03-03T12:24:04.911Z,8.19
2023-03-03T12:26:35.714Z,8.70
2023-03-03T12:29:07.563Z,8.38
2023-03-03T12:34:28.388Z,8.90
2023-03-03T12:37:05.130Z,8.38
2023-03-03T12:39:43.446Z,8.77
2023-03-03T12:42:15.807Z,8.99
2023-03-03T12:44:47.032Z,8.96
2023-03-03T12:47:19.623Z,8.52
2023-03-03T12:52:55.272Z,8.51
2023-03-03T12:55:27.969Z,7.62
2023-03-03T13:00:59.463Z,7.28
2023-03-03T13:06:33.916Z,8.32
2023-03-03T13:09:17.454Z,8.02
2023-03-03T13:11:54.168Z,8.07
2023-03-03T13:14:31.061Z,7.91
2023-03-03T13:20:02.290Z,8.34
2023-03-03T13:22:38.122Z,8.58
2023-03-03T13:25:10.118Z,7.94
2023-03-03T13:27:40.785Z,8.30
2023-03-03T13:30:17.738Z,8.57
2023-03-03T13:35:56.226Z,9.15
2023-03-03T13:38:26.758Z,8.99
2023-03-03T13:41:01.085Z,9.21
2023-03-03T13:43:31.500Z,9.24
2023-03-03T13:49:08.278Z,9.43
2023-03-03T13:54:58.126Z,9.40
2023-03-03T13:57:35.072Z,9.56
2023-03-03T14:00:10.950Z,9.93
2023-03-03T14:03:04.931Z,9.85
2023-03-03T14:05:38.223Z,9.40
2023-03-03T14:08:12.482Z,9.67
2023-03-03T14:10:45.575Z,9.47
2023-03-03T14:13:14.052Z,9.25
2023-03-03T14:15:47.431Z,8.90
2023-03-03T14:18:25.121Z,9.27
2023-03-03T14:20:53.802Z,9.54
2023-03-03T14:23:24.340Z,10.17
2023-03-03T14:29:07.471Z,9.83
2023-03-03T14:31:40.863Z,9.74
2023-03-03T14:34:34.043Z,9.76
2023-03-03T14:37:20.763Z,9.83
2023-03-03T14:39:52.080Z,10.48
2023-03-03T14:42:33.665Z,10.22
2023-03-03T14:45:05.037Z,10.44
2023-03-03T14:47:32.523Z,10.60
2023-03-03T14:53:15.120Z,9.59
2023-03-03T14:55:44.269Z,9.60
2023-03-03T14:58:33.060Z,9.38
2023-03-03T15:03:59.384Z,8.90
2023-03-03T15:06:34.362Z,9.20
2023-03-03T15:09:33.657Z,8.69
2023-03-03T15:12:01.897Z,8.46
2023-03-03T15:14:36.634Z,8.70
2023-03-03T15:20:06.361Z,7.80
2023-03-03T15:22:47.895Z,7.59
2023-03-03T15:25:22.852Z,7.64
2023-03-03T15:27:52.789Z,7.21
2023-03-03T15:30:26.186Z,7.27
2023-03-03T15:33:01.022Z,7.58
2023-03-03T15:35:38.518Z,7.11
2023-03-03T15:41:19.203Z,6.12
2023-03-03T15:43:53.462Z,5.94
2023-03-03T15:46:28.359Z,5.78
2023-03-03T15:49:03.826Z,5.90
2023-03-03T15:51:53.841Z,5.96
2023-03-03T15:54:46.861Z,5.76
2023-03-03T15:57:19.510Z,5.62
2023-03-03T16:00:07.989Z,5.65
2023-03-03T16:02:50.347Z,5.64
2023-03-03T16:08:25.585Z,5.85
2023-03-03T16:11:00.556Z,5.45
2023-03-03T16:16:34.563Z,5.30
2023-03-03T16:19:08.265Z,5.10
2023-03-03T16:21:50.258Z,5.28
2023-03-03T16:24:26.085Z,5.52
2023-03-03T16:26:56.062Z,5.64
2023-03-03T16:29:34.971Z,5.82
2023-03-03T16:32:06.238Z,5.61
2023-03-03T16:34:38.497Z,5.60
2023-03-03T16:37:13.979Z,5.65
2023-03-03T16:42:48.283Z,5.85
2023-03-03T16:48:30.325Z,5.51
2023-03-03T16:51:10.620Z,5.31
2023-03-03T16:53:47.694Z,5.04
2023-03-03T17:22:27.569Z,2.26
2023-03-03T17:25:05.376Z,2.46
2023-03-03T17:27:41.619Z,2.36
2023-03-03T17:30:15.287Z,2.29
2023-03-03T17:32:54.592Z,2.28
2023-03-03T17:35:34.340Z,2.40
2023-03-03T17:41:06.010Z,2.17
2023-03-03T17:43:39.911Z,1.95
2023-03-03T17:46:22.142Z,1.97
2023-03-03T17:49:07.484Z,2.32
2023-03-03T17:51:46.055Z,2.24
2023-03-03T17:57:30.394Z,2.32
2023-03-03T18:00:27.561Z,2.36
2023-03-03T18:03:16.049Z,2.15
2023-03-03T18:05:55.394Z,1.84
2023-03-03T18:08:42.068Z,2.26
2023-03-03T18:11:16.506Z,2.26
2023-03-03T18:13:56.887Z,2.43
2023-03-03T18:16:33.855Z,2.58
2023-03-03T18:19:13.358Z,2.85
2023-03-03T18:21:45.079Z,3.11
2023-03-03T18:24:28.246Z,3.13
2023-03-03T18:26:56.694Z,3.26
2023-03-03T18:29:27.821Z,3.46
2023-03-03T18:32:05.474Z,3.55
2023-03-03T18:34:38.485Z,3.74
2023-03-03T18:37:10.650Z,3.71
2023-03-03T18:39:48.092Z,3.57
2023-03-03T18:42:37.941Z,3.62
2023-03-03T18:48:09.037Z,3.97
2023-03-03T18:50:38.164Z,3.97
2023-03-03T18:53:23.746Z,4.11
2023-03-03T18:55:52.855Z,4.26
2023-03-03T18:58:32.616Z,4.11
2023-03-03T19:01:02.303Z,4.05
2023-03-03T19:03:34.101Z,4.06
2023-03-03T19:06:02.594Z,3.93
2023-03-03T19:08:45.893Z,4.09
2023-03-03T19:11:33.233Z,4.05
2023-03-03T19:16:58.966Z,4.23
2023-03-03T19:22:31.620Z,4.25
2023-03-03T19:25:08.054Z,4.18
2023-03-03T19:30:54.884Z,4.04
2023-03-03T19:36:37.230Z,4.31
2023-03-03T19:39:18.509Z,4.42
2023-03-03T19:41:53.612Z,4.38
2023-03-03T19:44:31.043Z,4.51
2023-03-03T19:47:01.911Z,4.49
2023-03-03T19:49:43.546Z,4.52
2023-03-03T19:52:17.856Z,4.38
2023-03-03T19:58:00.119Z,4.57
2023-03-03T20:00:33.506Z,4.61
2023-03-03T20:03:39.678Z,4.69
2023-03-03T20:06:17.267Z,4.55
2023-03-03T20:08:51.861Z,4.67
2023-03-03T20:11:35.774Z,4.83
2023-03-03T20:17:18.206Z,4.95
2023-03-03T20:19:51.952Z,4.76
2023-03-03T20:22:26.911Z,4.94
2023-03-03T20:25:02.614Z,4.89
2023-03-03T20:27:45.809Z,4.79
2023-03-03T20:30:20.487Z,4.92
2023-03-03T20:35:55.255Z,4.86
2023-03-03T20:38:27.964Z,4.95
2023-03-03T20:41:03.171Z,4.81
2023-03-03T20:43:41.422Z,4.95
2023-03-03T20:49:11.038Z,4.98
2023-03-03T20:51:42.385Z,5.05
2023-03-03T20:54:16.982Z,5.12
2023-03-03T20:56:48.800Z,5.11
2023-03-03T20:59:23.134Z,4.94
2023-03-03T21:01:54.793Z,5.05
2023-03-03T21:04:24.357Z,5.06
2023-03-03T21:09:49.455Z,5.10
2023-03-03T21:15:28.903Z,5.00
2023-03-03T21:17:58.064Z,4.87
2023-03-03T21:20:28.743Z,4.80
2023-03-03T21:22:56.689Z,4.70
2023-03-03T21:28:24.953Z,4.74
2023-03-03T21:31:14.114Z,4.66
2023-03-03T21:36:47.154Z,4.76
2023-03-03T21:39:22.478Z,4.68
2023-03-03T21:44:43.954Z,4.91
2023-03-03T21:47:15.087Z,4.70
2023-03-03T21:49:43.359Z,4.58
2023-03-03T21:52:11.453Z,4.54
2023-03-03T21:57:41.657Z,4.59
2023-03-03T22:00:10.388Z,4.52
2023-03-03T22:02:39.204Z,4.66
2023-03-03T22:05:07.978Z,4.56
2023-03-03T22:07:35.487Z,4.64
2023-03-03T22:10:02.991Z,4.65
2023-03-03T22:12:30.425Z,4.60
2023-03-03T22:14:57.877Z,4.48
2023-03-03T22:17:25.456Z,4.58
2023-03-03T22:22:56.936Z,4.63
2023-03-03T22:25:24.629Z,4.59
2023-03-03T22:27:52.055Z,4.70
2023-03-03T22:30:19.667Z,4.75
2023-03-03T22:32:47.091Z,4.72
2023-03-03T22:35:14.752Z,4.82
2023-03-03T22:40:42.223Z,4.86
2023-03-03T22:43:11.278Z,4.89
2023-03-03T22:45:38.807Z,4.89
2023-03-03T22:48:06.562Z,4.93
2023-03-03T22:50:39.252Z,4.90
2023-03-03T22:53:06.691Z,4.92
2023-03-03T22:55:36.830Z,4.96
2023-03-03T22:58:07.536Z,5.09
2023-03-03T23:03:37.066Z,4.90
2023-03-03T23:06:05.265Z,4.77
2023-03-03T23:08:32.705Z,5.11
2023-03-03T23:11:02.773Z,4.94
2023-03-03T23:13:32.298Z,5.23
2023-03-03T23:16:00.228Z,5.12
2023-03-03T23:21:30.607Z,5.04
2023-03-03T23:23:58.030Z,5.03
2023-03-03T23:26:58.010Z,4.84
2023-03-03T23:29:26.876Z,4.90
2023-03-03T23:31:54.452Z,4.90
2023-03-03T23:34:21.991Z,4.82
2023-03-03T23:36:49.501Z,4.77
2023-03-03T23:39:17.356Z,4.69
2023-03-03T23:41:45.562Z,4.70
2023-03-03T23:44:13.435Z,4.79
2023-03-03T23:46:42.335Z,4.86
2023-03-03T23:49:09.851Z,4.86
2023-03-03T23:51:37.453Z,4.99
2023-03-03T23:54:05.188Z,5.02
2023-03-03T23:56:32.657Z,4.92
2023-03-03T23:59:00.120Z,4.74
